This is the latest recevied weather packets stored in our database for station/object HK4LRM-13. If no packets are shown the sender has not sent any weather packets the latest 10 day(s).
| Time | Temp. | Humidity | Pressure | Rain* | Wind** | Luminosity | Snow |
|---|---|---|---|---|---|---|---|
| 1777573393 | 26.11° C | 50% | 1007 hPa | 0 mm | - | - | - |
| 1777572853 | 26.67° C | 49% | 1007 hPa | 0 mm | - | - | - |
| 1777572310 | 27.22° C | 48% | 1007 hPa | 0 mm | - | - | - |
| 1777571769 | 27.22° C | 48% | 1007 hPa | 0 mm | - | - | - |
| 1777571229 | 25.56° C | 51% | 1008 hPa | 0 mm | - | - | - |
| 1777570148 | 26.11° C | 52% | 1009 hPa | 0 mm | - | - | - |
| 1777569607 | 26.67° C | 51% | 1009 hPa | 0 mm | - | - | - |
| 1777569067 | 25.56° C | 55% | 1009 hPa | 0 mm | - | - | - |
| 1777568526 | 25.56° C | 57% | 1009 hPa | 0 mm | - | - | - |
| 1777567985 | 25.56° C | 57% | 1009 hPa | 0 mm | - | - | - |
| 1777567445 | 25.56° C | 57% | 1009 hPa | 0 mm | - | - | - |
| 1777566904 | 25.56° C | 57% | 1009 hPa | 0 mm | - | - | - |
| 1777566361 | 25.56° C | 57% | 1011 hPa | 0 mm | - | - | - |
| 1777565821 | 25.56° C | 57% | 1011 hPa | 0 mm | - | - | - |
| 1777565277 | 25.56° C | 57% | 1011 hPa | 0 mm | - | - | - |
| 1777564735 | 22.78° C | 68% | 1011 hPa | 0 mm | - | - | - |
| 1777564195 | 22.78° C | 68% | 1011 hPa | 0 mm | - | - | - |
| 1777563114 | 22.78° C | 72% | 1012 hPa | 0 mm | - | - | - |
| 1777562570 | 22.78° C | 72% | 1012 hPa | 0 mm | - | - | - |
| 1777562030 | 22.78° C | 72% | 1012 hPa | 0 mm | - | - | - |
| 1777561489 | 22.22° C | 75% | 1012 hPa | 0 mm | - | - | - |
| 1777560948 | 22.22° C | 75% | 1012 hPa | 0 mm | - | - | - |
| 1777560405 | 22.22° C | 75% | 1012 hPa | 0 mm | - | - | - |
| 1777559864 | 20.56° C | 78% | 1012 hPa | 0 mm | - | - | - |
| 1777559324 | 20° C | 79% | 1013 hPa | 0 mm | - | - | - |
* Rain latest hour (hover to see other rain measurements)
** Current wind speed in m/s (hover to see current wind gust speed)